sensor_id;sensor_type;location;lat;lon;timestamp;P1;durP1;ratioP1;P2;durP2;ratioP2
10142;SDS011;5112;54.088;13.446;2024-03-17T00:02:21;9.70;;;2.90;;
10142;SDS011;5112;54.088;13.446;2024-03-17T00:12:24;9.80;;;2.30;;
10142;SDS011;5112;54.088;13.446;2024-03-17T00:22:26;8.30;;;2.60;;
10142;SDS011;5112;54.088;13.446;2024-03-17T00:32:29;4.90;;;1.80;;
10142;SDS011;5112;54.088;13.446;2024-03-17T00:42:31;2.23;;;1.40;;
10142;SDS011;5112;54.088;13.446;2024-03-17T00:52:35;2.37;;;1.40;;
10142;SDS011;5112;54.088;13.446;2024-03-17T01:02:36;2.08;;;1.17;;
10142;SDS011;5112;54.088;13.446;2024-03-17T01:12:41;1.70;;;1.00;;
10142;SDS011;5112;54.088;13.446;2024-03-17T01:22:42;2.27;;;1.17;;
10142;SDS011;5112;54.088;13.446;2024-03-17T01:32:46;4.70;;;1.63;;
10142;SDS011;5112;54.088;13.446;2024-03-17T01:42:49;3.60;;;1.50;;
10142;SDS011;5112;54.088;13.446;2024-03-17T01:52:52;3.73;;;1.43;;
10142;SDS011;5112;54.088;13.446;2024-03-17T02:02:55;3.40;;;1.85;;
10142;SDS011;5112;54.088;13.446;2024-03-17T02:12:58;3.90;;;1.60;;
10142;SDS011;5112;54.088;13.446;2024-03-17T02:23:01;4.63;;;1.50;;
10142;SDS011;5112;54.088;13.446;2024-03-17T02:33:03;1.98;;;1.30;;
10142;SDS011;5112;54.088;13.446;2024-03-17T02:43:06;3.03;;;1.47;;
10142;SDS011;5112;54.088;13.446;2024-03-17T02:53:08;5.13;;;1.30;;
10142;SDS011;5112;54.088;13.446;2024-03-17T03:03:10;4.00;;;1.20;;
10142;SDS011;5112;54.088;13.446;2024-03-17T03:13:12;3.77;;;1.40;;
10142;SDS011;5112;54.088;13.446;2024-03-17T03:23:15;3.30;;;1.20;;
10142;SDS011;5112;54.088;13.446;2024-03-17T03:33:17;5.80;;;1.50;;
10142;SDS011;5112;54.088;13.446;2024-03-17T03:43:20;4.95;;;1.70;;
10142;SDS011;5112;54.088;13.446;2024-03-17T03:53:22;4.40;;;1.80;;
10142;SDS011;5112;54.088;13.446;2024-03-17T04:03:25;4.00;;;1.77;;
10142;SDS011;5112;54.088;13.446;2024-03-17T04:13:27;3.13;;;1.73;;
10142;SDS011;5112;54.088;13.446;2024-03-17T04:23:31;1.43;;;1.30;;
10142;SDS011;5112;54.088;13.446;2024-03-17T04:33:33;1.63;;;1.40;;
10142;SDS011;5112;54.088;13.446;2024-03-17T04:43:36;2.80;;;1.27;;
10142;SDS011;5112;54.088;13.446;2024-03-17T04:53:38;3.17;;;0.93;;
10142;SDS011;5112;54.088;13.446;2024-03-17T05:03:42;1.93;;;0.53;;
10142;SDS011;5112;54.088;13.446;2024-03-17T05:13:44;0.50;;;0.50;;
10142;SDS011;5112;54.088;13.446;2024-03-17T05:23:47;1.90;;;0.70;;
10142;SDS011;5112;54.088;13.446;2024-03-17T05:33:49;1.50;;;0.80;;
10142;SDS011;5112;54.088;13.446;2024-03-17T05:43:53;2.33;;;1.20;;
10142;SDS011;5112;54.088;13.446;2024-03-17T05:53:58;1.17;;;0.60;;
10142;SDS011;5112;54.088;13.446;2024-03-17T06:04:01;1.20;;;0.80;;
10142;SDS011;5112;54.088;13.446;2024-03-17T06:14:04;2.00;;;0.60;;
10142;SDS011;5112;54.088;13.446;2024-03-17T06:24:10;0.90;;;0.90;;
10142;SDS011;5112;54.088;13.446;2024-03-17T06:34:12;2.77;;;1.00;;
10142;SDS011;5112;54.088;13.446;2024-03-17T06:44:17;4.23;;;1.60;;
10142;SDS011;5112;54.088;13.446;2024-03-17T06:54:19;0.93;;;0.60;;
10142;SDS011;5112;54.088;13.446;2024-03-17T07:04:22;0.93;;;0.80;;
10142;SDS011;5112;54.088;13.446;2024-03-17T07:14:23;2.70;;;2.50;;
10142;SDS011;5112;54.088;13.446;2024-03-17T07:24:27;1.93;;;1.73;;
10142;SDS011;5112;54.088;13.446;2024-03-17T07:34:30;4.40;;;3.70;;
10142;SDS011;5112;54.088;13.446;2024-03-17T07:44:33;1.93;;;1.10;;
10142;SDS011;5112;54.088;13.446;2024-03-17T07:54:35;0.80;;;0.80;;
10142;SDS011;5112;54.088;13.446;2024-03-17T08:04:38;0.50;;;0.50;;
10142;SDS011;5112;54.088;13.446;2024-03-17T08:14:40;1.17;;;0.60;;
10142;SDS011;5112;54.088;13.446;2024-03-17T08:24:43;1.30;;;0.53;;
10142;SDS011;5112;54.088;13.446;2024-03-17T08:34:46;0.50;;;0.43;;
10142;SDS011;5112;54.088;13.446;2024-03-17T08:44:49;0.67;;;0.50;;
10142;SDS011;5112;54.088;13.446;2024-03-17T08:54:51;0.90;;;0.40;;
10142;SDS011;5112;54.088;13.446;2024-03-17T09:04:54;0.40;;;0.40;;
10142;SDS011;5112;54.088;13.446;2024-03-17T09:14:56;0.80;;;0.43;;
10142;SDS011;5112;54.088;13.446;2024-03-17T09:24:59;0.87;;;0.60;;
10142;SDS011;5112;54.088;13.446;2024-03-17T09:35:01;0.73;;;0.70;;
10142;SDS011;5112;54.088;13.446;2024-03-17T09:45:04;1.60;;;0.70;;
10142;SDS011;5112;54.088;13.446;2024-03-17T09:55:08;0.53;;;0.53;;
10142;SDS011;5112;54.088;13.446;2024-03-17T10:05:19;0.50;;;0.50;;
10142;SDS011;5112;54.088;13.446;2024-03-17T10:15:22;1.43;;;0.90;;
10142;SDS011;5112;54.088;13.446;2024-03-17T10:25:25;2.27;;;0.73;;
10142;SDS011;5112;54.088;13.446;2024-03-17T10:35:28;0.60;;;0.60;;
10142;SDS011;5112;54.088;13.446;2024-03-17T10:45:33;1.17;;;0.77;;
10142;SDS011;5112;54.088;13.446;2024-03-17T10:55:40;0.50;;;0.30;;
10142;SDS011;5112;54.088;13.446;2024-03-17T11:05:46;1.03;;;0.60;;
10142;SDS011;5112;54.088;13.446;2024-03-17T11:15:49;0.50;;;0.50;;
10142;SDS011;5112;54.088;13.446;2024-03-17T11:25:55;1.23;;;0.70;;
10142;SDS011;5112;54.088;13.446;2024-03-17T11:46:34;1.30;;;0.47;;
10142;SDS011;5112;54.088;13.446;2024-03-17T11:56:35;0.90;;;0.90;;
10142;SDS011;5112;54.088;13.446;2024-03-17T12:06:38;0.60;;;0.60;;
10142;SDS011;5112;54.088;13.446;2024-03-17T12:16:46;1.20;;;0.90;;
10142;SDS011;5112;54.088;13.446;2024-03-17T12:26:50;2.27;;;2.07;;
10142;SDS011;5112;54.088;13.446;2024-03-17T12:36:56;4.80;;;2.50;;
10142;SDS011;5112;54.088;13.446;2024-03-17T12:47:00;1.30;;;1.20;;
10142;SDS011;5112;54.088;13.446;2024-03-17T12:57:03;1.53;;;1.07;;
10142;SDS011;5112;54.088;13.446;2024-03-17T13:07:25;1.50;;;0.90;;
10142;SDS011;5112;54.088;13.446;2024-03-17T13:17:27;0.80;;;0.80;;
10142;SDS011;5112;54.088;13.446;2024-03-17T13:27:32;1.40;;;0.90;;
10142;SDS011;5112;54.088;13.446;2024-03-17T13:37:33;1.33;;;0.93;;
10142;SDS011;5112;54.088;13.446;2024-03-17T13:47:36;1.13;;;0.77;;
10142;SDS011;5112;54.088;13.446;2024-03-17T13:57:38;1.17;;;0.80;;
10142;SDS011;5112;54.088;13.446;2024-03-17T14:07:41;0.93;;;0.80;;
10142;SDS011;5112;54.088;13.446;2024-03-17T14:17:44;1.07;;;0.80;;
10142;SDS011;5112;54.088;13.446;2024-03-17T14:27:48;1.23;;;0.90;;
10142;SDS011;5112;54.088;13.446;2024-03-17T14:37:49;4.13;;;0.80;;
10142;SDS011;5112;54.088;13.446;2024-03-17T14:47:53;0.77;;;0.77;;
10142;SDS011;5112;54.088;13.446;2024-03-17T14:57:55;2.27;;;1.00;;
10142;SDS011;5112;54.088;13.446;2024-03-17T15:07:58;1.17;;;1.07;;
10142;SDS011;5112;54.088;13.446;2024-03-17T15:18:00;2.00;;;1.50;;
10142;SDS011;5112;54.088;13.446;2024-03-17T15:28:03;4.67;;;3.73;;
10142;SDS011;5112;54.088;13.446;2024-03-17T15:38:05;4.20;;;1.97;;
10142;SDS011;5112;54.088;13.446;2024-03-17T15:48:08;1.80;;;1.50;;
10142;SDS011;5112;54.088;13.446;2024-03-17T15:58:09;1.73;;;1.03;;
10142;SDS011;5112;54.088;13.446;2024-03-17T16:08:12;1.20;;;1.10;;
10142;SDS011;5112;54.088;13.446;2024-03-17T16:18:15;1.20;;;1.10;;
10142;SDS011;5112;54.088;13.446;2024-03-17T16:28:19;0.90;;;0.90;;
10142;SDS011;5112;54.088;13.446;2024-03-17T16:38:22;1.10;;;1.00;;
10142;SDS011;5112;54.088;13.446;2024-03-17T16:48:25;6.63;;;5.50;;
10142;SDS011;5112;54.088;13.446;2024-03-17T16:58:27;2.10;;;1.23;;
10142;SDS011;5112;54.088;13.446;2024-03-17T17:08:30;1.20;;;1.10;;
10142;SDS011;5112;54.088;13.446;2024-03-17T17:18:47;1.40;;;1.13;;
10142;SDS011;5112;54.088;13.446;2024-03-17T17:28:54;2.40;;;2.20;;
10142;SDS011;5112;54.088;13.446;2024-03-17T17:38:58;3.13;;;2.83;;
10142;SDS011;5112;54.088;13.446;2024-03-17T17:49:01;2.90;;;2.13;;
10142;SDS011;5112;54.088;13.446;2024-03-17T17:59:03;2.17;;;2.03;;
10142;SDS011;5112;54.088;13.446;2024-03-17T18:09:06;3.90;;;3.60;;
10142;SDS011;5112;54.088;13.446;2024-03-17T18:19:15;1.23;;;1.23;;
10142;SDS011;5112;54.088;13.446;2024-03-17T18:29:18;3.57;;;3.27;;
10142;SDS011;5112;54.088;13.446;2024-03-17T18:39:20;2.70;;;1.80;;
10142;SDS011;5112;54.088;13.446;2024-03-17T18:49:22;1.87;;;1.20;;
10142;SDS011;5112;54.088;13.446;2024-03-17T18:59:24;1.77;;;1.67;;
10142;SDS011;5112;54.088;13.446;2024-03-17T19:09:27;1.30;;;1.20;;
10142;SDS011;5112;54.088;13.446;2024-03-17T19:19:29;1.43;;;1.33;;
10142;SDS011;5112;54.088;13.446;2024-03-17T19:29:31;2.93;;;2.00;;
10142;SDS011;5112;54.088;13.446;2024-03-17T19:39:33;3.00;;;2.70;;
10142;SDS011;5112;54.088;13.446;2024-03-17T19:49:36;1.67;;;1.57;;
10142;SDS011;5112;54.088;13.446;2024-03-17T19:59:38;2.10;;;1.90;;
10142;SDS011;5112;54.088;13.446;2024-03-17T20:09:41;2.33;;;2.13;;
10142;SDS011;5112;54.088;13.446;2024-03-17T20:19:43;2.23;;;2.03;;
10142;SDS011;5112;54.088;13.446;2024-03-17T20:29:46;2.03;;;1.83;;
10142;SDS011;5112;54.088;13.446;2024-03-17T20:39:48;1.90;;;1.80;;
10142;SDS011;5112;54.088;13.446;2024-03-17T20:49:52;4.20;;;3.53;;
10142;SDS011;5112;54.088;13.446;2024-03-17T20:59:53;3.00;;;2.70;;
10142;SDS011;5112;54.088;13.446;2024-03-17T21:10:00;3.17;;;2.00;;
10142;SDS011;5112;54.088;13.446;2024-03-17T21:20:02;3.43;;;3.13;;
10142;SDS011;5112;54.088;13.446;2024-03-17T21:30:08;2.70;;;1.83;;
10142;SDS011;5112;54.088;13.446;2024-03-17T21:40:10;1.20;;;1.20;;
10142;SDS011;5112;54.088;13.446;2024-03-17T21:50:14;1.90;;;1.60;;
10142;SDS011;5112;54.088;13.446;2024-03-17T22:00:17;1.53;;;1.43;;
10142;SDS011;5112;54.088;13.446;2024-03-17T22:10:22;2.43;;;2.03;;
10142;SDS011;5112;54.088;13.446;2024-03-17T22:20:24;2.20;;;1.77;;
10142;SDS011;5112;54.088;13.446;2024-03-17T22:30:27;2.87;;;2.57;;
10142;SDS011;5112;54.088;13.446;2024-03-17T22:40:29;3.80;;;3.50;;
10142;SDS011;5112;54.088;13.446;2024-03-17T22:50:32;3.17;;;2.83;;
10142;SDS011;5112;54.088;13.446;2024-03-17T23:00:33;2.90;;;2.50;;
10142;SDS011;5112;54.088;13.446;2024-03-17T23:10:44;3.60;;;2.47;;
10142;SDS011;5112;54.088;13.446;2024-03-17T23:20:46;1.73;;;1.63;;
10142;SDS011;5112;54.088;13.446;2024-03-17T23:30:49;2.00;;;1.90;;
10142;SDS011;5112;54.088;13.446;2024-03-17T23:40:50;2.37;;;2.17;;
10142;SDS011;5112;54.088;13.446;2024-03-17T23:50:53;2.73;;;2.50;;
